Time;durP1;ratioP1;P1;durP2;ratioP2;P2;SDS_P1;SDS_P2;PMS_P1;PMS_P2;Temp;Humidity;BMP_temperature;BMP_pressure;BME280_temperature;BME280_humidity;BME280_pressure;Samples;Min_cycle;Max_cycle;Signal;HPM_P1;HPM_P2
2023/08/11 00:01:46;;;;;;;4.75;1.70;;;;;;;;;;6180527;23;20005;-85
2023/08/11 00:04:14;;;;;;;5.30;2.35;;;;;;;;;;6181351;23;20024;-84
2023/08/11 00:06:40;;;;;;;5.30;1.60;;;;;;;;;;6182349;23;20009;-85
2023/08/11 00:09:08;;;;;;;4.03;2.20;;;;;;;;;;6181262;23;20020;-85
2023/08/11 00:11:34;;;;;;;4.60;1.85;;;;;;;;;;6182583;23;20040;-85
2023/08/11 00:14:02;;;;;;;4.95;1.63;;;;;;;;;;6181204;23;20017;-84
2023/08/11 00:16:28;;;;;;;5.10;1.67;;;;;;;;;;6180367;23;20075;-85
2023/08/11 00:18:54;;;;;;;6.28;1.70;;;;;;;;;;6180953;23;20035;-85
2023/08/11 00:21:20;;;;;;;4.55;2.03;;;;;;;;;;6179968;23;20440;-85
2023/08/11 00:23:46;;;;;;;3.90;1.25;;;;;;;;;;6183020;23;20009;-85
2023/08/11 00:26:14;;;;;;;5.00;1.67;;;;;;;;;;6182262;23;20013;-85
2023/08/11 00:28:40;;;;;;;5.13;2.15;;;;;;;;;;6181351;23;20734;-85
2023/08/11 00:31:08;;;;;;;4.07;1.70;;;;;;;;;;6181002;23;20013;-85
2023/08/11 00:33:34;;;;;;;4.45;1.92;;;;;;;;;;6183066;23;20052;-85
2023/08/11 00:36:00;;;;;;;7.65;2.08;;;;;;;;;;6180836;23;20608;-85
2023/08/11 00:38:35;;;;;;;2.97;1.42;;;;;;;;;;6180834;23;20353;-85
2023/08/11 00:41:01;;;;;;;3.88;1.50;;;;;;;;;;6180955;23;20314;-85
2023/08/11 00:43:27;;;;;;;7.45;2.08;;;;;;;;;;6180261;23;20020;-85
2023/08/11 00:45:53;;;;;;;3.90;2.15;;;;;;;;;;6182224;23;20016;-85
2023/08/11 00:48:19;;;;;;;4.55;2.30;;;;;;;;;;6181721;23;20452;-84
2023/08/11 00:50:46;;;;;;;4.40;1.70;;;;;;;;;;6181649;23;20019;-85
2023/08/11 00:53:12;;;;;;;7.03;2.10;;;;;;;;;;6180405;23;20013;-85
2023/08/11 00:55:38;;;;;;;3.38;1.70;;;;;;;;;;6181214;23;20013;-84
2023/08/11 00:58:05;;;;;;;4.55;1.73;;;;;;;;;;6180011;23;20389;-85
2023/08/11 01:00:31;;;;;;;4.95;1.95;;;;;;;;;;6182767;23;20020;-85
2023/08/11 01:02:57;;;;;;;3.90;1.70;;;;;;;;;;6154620;23;20337;-85
2023/08/11 01:05:25;;;;;;;6.93;1.83;;;;;;;;;;6154829;23;20092;-85
2023/08/11 01:08:03;;;;;;;3.88;1.67;;;;;;;;;;6156014;23;20005;-85
2023/08/11 01:10:46;;;;;;;6.00;2.00;;;;;;;;;;6155065;23;20016;-85
2023/08/11 01:13:19;;;;;;;7.75;2.00;;;;;;;;;;6156459;23;20020;-85
2023/08/11 01:15:49;;;;;;;5.68;1.88;;;;;;;;;;6155887;23;20401;-85
2023/08/11 01:18:15;;;;;;;7.20;2.00;;;;;;;;;;6182548;23;20084;-85
2023/08/11 01:20:42;;;;;;;6.82;2.22;;;;;;;;;;6183090;23;20116;-85
2023/08/11 01:23:09;;;;;;;4.35;1.88;;;;;;;;;;6155805;23;20013;-85
2023/08/11 01:25:38;;;;;;;3.95;2.10;;;;;;;;;;6156460;23;20077;-85
2023/08/11 01:28:04;;;;;;;4.55;1.88;;;;;;;;;;6155134;23;20009;-85
2023/08/11 01:30:34;;;;;;;7.57;2.20;;;;;;;;;;6155537;23;20005;-85
2023/08/11 01:33:04;;;;;;;7.78;2.00;;;;;;;;;;6154984;23;20017;-85
2023/08/11 01:35:30;;;;;;;5.63;2.83;;;;;;;;;;6155246;23;20013;-85
2023/08/11 01:37:56;;;;;;;7.70;2.10;;;;;;;;;;6181316;23;20745;-85
2023/08/11 01:40:26;;;;;;;5.15;1.95;;;;;;;;;;6155728;23;20005;-86
2023/08/11 01:42:55;;;;;;;5.18;2.53;;;;;;;;;;6154655;23;20070;-85
2023/08/11 01:45:21;;;;;;;3.83;1.83;;;;;;;;;;6182547;23;20436;-85
2023/08/11 01:47:48;;;;;;;9.10;2.33;;;;;;;;;;6180996;23;20013;-85
2023/08/11 01:50:14;;;;;;;7.18;2.63;;;;;;;;;;6182086;23;20005;-85
2023/08/11 01:52:42;;;;;;;6.15;2.00;;;;;;;;;;6154879;23;20021;-85
2023/08/11 01:55:11;;;;;;;6.10;2.22;;;;;;;;;;6182713;23;20043;-85
2023/08/11 01:57:38;;;;;;;5.72;2.40;;;;;;;;;;6155011;23;20104;-85
2023/08/11 02:00:07;;;;;;;6.72;2.80;;;;;;;;;;6177306;23;20158;-84
2023/08/11 02:02:33;;;;;;;5.45;2.70;;;;;;;;;;6179743;23;20072;-84
2023/08/11 02:04:59;;;;;;;7.88;2.67;;;;;;;;;;6179161;23;20035;-85
2023/08/11 02:07:25;;;;;;;4.60;2.15;;;;;;;;;;6179567;23;20432;-85
2023/08/11 02:09:54;;;;;;;5.97;2.13;;;;;;;;;;6182252;23;20016;-84
2023/08/11 02:12:20;;;;;;;7.05;2.22;;;;;;;;;;6180082;23;20376;-85
2023/08/11 02:14:46;;;;;;;5.70;1.67;;;;;;;;;;6178560;23;20139;-84
2023/08/11 02:17:12;;;;;;;9.50;2.70;;;;;;;;;;6182102;23;20016;-85
2023/08/11 02:19:38;;;;;;;5.70;2.53;;;;;;;;;;6178509;23;20012;-85
2023/08/11 02:22:04;;;;;;;3.65;2.00;;;;;;;;;;6179726;23;20017;-84
2023/08/11 02:24:30;;;;;;;4.97;1.90;;;;;;;;;;6179216;23;20015;-84
2023/08/11 02:26:56;;;;;;;8.20;2.22;;;;;;;;;;6180760;23;20009;-85
2023/08/11 02:29:23;;;;;;;6.53;2.00;;;;;;;;;;6179008;23;20013;-84
2023/08/11 02:31:49;;;;;;;10.20;2.00;;;;;;;;;;6180134;23;20112;-84
2023/08/11 02:34:15;;;;;;;4.35;1.60;;;;;;;;;;6178972;23;20013;-85
2023/08/11 02:36:47;;;;;;;3.30;1.55;;;;;;;;;;6180165;23;20013;-86
2023/08/11 02:39:13;;;;;;;;;;;;;;;;;;6179499;23;20008;-86
2023/08/11 02:41:39;;;;;;;5.32;2.05;;;;;;;;;;6179601;23;19927;-85
2023/08/11 02:44:07;;;;;;;4.78;1.80;;;;;;;;;;6179150;23;20059;-85
2023/08/11 02:46:35;;;;;;;4.18;1.90;;;;;;;;;;6180193;23;20029;-85
2023/08/11 02:49:01;;;;;;;5.05;1.80;;;;;;;;;;6178666;23;20020;-85
2023/08/11 02:51:27;;;;;;;7.18;2.08;;;;;;;;;;6179663;23;20017;-85
2023/08/11 02:53:53;;;;;;;5.95;2.28;;;;;;;;;;6179818;23;20058;-85
2023/08/11 02:56:19;;;;;;;5.95;1.83;;;;;;;;;;6179064;23;20009;-85
2023/08/11 02:58:46;;;;;;;5.97;2.20;;;;;;;;;;6179777;23;20017;-85
2023/08/11 03:01:12;;;;;;;8.93;2.13;;;;;;;;;;6179121;23;20009;-85
2023/08/11 03:03:38;;;;;;;5.32;1.70;;;;;;;;;;6179863;23;20035;-85
2023/08/11 03:06:05;;;;;;;7.50;1.88;;;;;;;;;;6180014;23;20027;-84
2023/08/11 03:08:32;;;;;;;4.47;2.05;;;;;;;;;;6181470;23;20027;-84
2023/08/11 03:10:58;;;;;;;4.20;1.80;;;;;;;;;;6180405;23;20071;-85
2023/08/11 03:13:24;;;;;;;6.38;1.73;;;;;;;;;;6181757;23;20005;-85
2023/08/11 03:15:52;;;;;;;7.90;2.22;;;;;;;;;;6180096;23;20874;-85
2023/08/11 03:18:18;;;;;;;4.25;1.75;;;;;;;;;;6179830;23;20328;-85
2023/08/11 03:20:44;;;;;;;10.30;2.25;;;;;;;;;;6179063;23;20103;-84
2023/08/11 03:23:10;;;;;;;4.07;1.75;;;;;;;;;;6179889;23;20047;-85
2023/08/11 03:25:36;;;;;;;5.13;1.67;;;;;;;;;;6181330;23;20005;-84
2023/08/11 03:28:04;;;;;;;7.60;2.42;;;;;;;;;;6184802;23;20012;-84
2023/08/11 03:30:46;;;;;;;5.80;2.15;;;;;;;;;;6182192;23;20012;-84
2023/08/11 03:33:15;;;;;;;8.27;2.17;;;;;;;;;;6182799;23;20535;-84
2023/08/11 03:35:48;;;;;;;5.18;2.17;;;;;;;;;;6183485;23;20016;-84
2023/08/11 03:38:14;;;;;;;5.80;2.50;;;;;;;;;;6182598;23;20117;-84
2023/08/11 03:40:40;;;;;;;7.85;1.85;;;;;;;;;;6182868;23;20086;-85
2023/08/11 03:43:07;;;;;;;7.15;1.55;;;;;;;;;;6181550;23;20017;-85
2023/08/11 03:45:35;;;;;;;4.45;1.80;;;;;;;;;;6182785;23;20015;-85
2023/08/11 03:48:03;;;;;;;4.18;1.67;;;;;;;;;;6181670;23;20009;-85
2023/08/11 03:50:31;;;;;;;9.10;1.98;;;;;;;;;;6182580;23;20534;-85
2023/08/11 03:53:03;;;;;;;4.85;2.05;;;;;;;;;;6182232;23;20028;-85
2023/08/11 03:55:29;;;;;;;4.60;2.05;;;;;;;;;;6182762;23;20432;-85
2023/08/11 03:58:01;;;;;;;5.88;2.20;;;;;;;;;;6182131;23;20013;-84
2023/08/11 04:00:30;;;;;;;4.85;2.08;;;;;;;;;;6158064;23;20009;-84
2023/08/11 04:02:56;;;;;;;4.65;2.20;;;;;;;;;;6156693;23;20020;-84
2023/08/11 04:05:24;;;;;;;5.00;2.20;;;;;;;;;;6157700;23;20068;-85
2023/08/11 04:07:50;;;;;;;7.15;2.38;;;;;;;;;;6156794;23;20021;-85
2023/08/11 04:10:18;;;;;;;5.45;2.55;;;;;;;;;;6158473;23;20310;-85
2023/08/11 04:12:44;;;;;;;5.53;1.83;;;;;;;;;;6156499;23;20021;-84
2023/08/11 04:15:10;;;;;;;4.68;2.03;;;;;;;;;;6158072;23;20012;-84
2023/08/11 04:17:36;;;;;;;6.25;1.83;;;;;;;;;;6157136;23;20009;-84
2023/08/11 04:20:12;;;;;;;6.40;1.77;;;;;;;;;;6157817;23;20029;-84
2023/08/11 04:22:39;;;;;;;8.55;2.40;;;;;;;;;;6157292;23;20337;-84
2023/08/11 04:25:05;;;;;;;4.22;1.90;;;;;;;;;;6184543;23;20013;-84
2023/08/11 04:27:33;;;;;;;5.57;2.20;;;;;;;;;;6183389;23;20490;-85
2023/08/11 04:30:07;;;;;;;5.75;1.95;;;;;;;;;;6157795;23;20013;-84
2023/08/11 04:32:33;;;;;;;7.40;2.25;;;;;;;;;;6157541;23;20013;-84
2023/08/11 04:34:59;;;;;;;6.32;1.70;;;;;;;;;;6183463;23;20019;-85
2023/08/11 04:37:26;;;;;;;5.93;1.70;;;;;;;;;;6182571;23;20005;-85
2023/08/11 04:39:54;;;;;;;6.25;2.00;;;;;;;;;;6182823;23;20068;-86
2023/08/11 04:42:20;;;;;;;5.90;2.17;;;;;;;;;;6155751;23;20455;-85
2023/08/11 04:44:47;;;;;;;5.65;1.48;;;;;;;;;;6155848;23;20712;-85
2023/08/11 04:47:12;;;;;;;4.70;1.60;;;;;;;;;;6156271;23;20421;-85
2023/08/11 04:49:39;;;;;;;7.22;2.50;;;;;;;;;;6155406;23;20023;-85
2023/08/11 04:52:04;;;;;;;4.10;1.80;;;;;;;;;;6156390;23;20063;-85
2023/08/11 04:54:31;;;;;;;8.25;1.65;;;;;;;;;;6155231;23;20095;-85
2023/08/11 04:56:57;;;;;;;6.03;1.75;;;;;;;;;;6156017;23;20104;-85
2023/08/11 04:59:23;;;;;;;4.53;1.50;;;;;;;;;;6168060;23;20032;-85
2023/08/11 05:01:49;;;;;;;3.65;1.70;;;;;;;;;;6179492;23;20045;-85
2023/08/11 05:04:15;;;;;;;4.53;1.70;;;;;;;;;;6179799;23;20096;-84
2023/08/11 05:06:41;;;;;;;4.82;1.85;;;;;;;;;;6179845;23;20373;-84
2023/08/11 05:09:07;;;;;;;6.32;1.63;;;;;;;;;;6179007;23;20013;-85
2023/08/11 05:11:33;;;;;;;6.78;1.88;;;;;;;;;;6181035;23;20017;-84
2023/08/11 05:13:59;;;;;;;10.82;3.05;;;;;;;;;;6182185;23;20065;-84
2023/08/11 05:16:28;;;;;;;5.53;2.30;;;;;;;;;;6182705;23;20044;-84
2023/08/11 05:18:54;;;;;;;14.75;2.35;;;;;;;;;;6179989;23;20368;-85
2023/08/11 05:21:20;;;;;;;9.13;2.60;;;;;;;;;;6180569;23;20013;-84
2023/08/11 05:23:46;;;;;;;6.75;2.10;;;;;;;;;;6179720;23;20052;-85
2023/08/11 05:26:12;;;;;;;5.13;2.05;;;;;;;;;;6180982;23;20059;-84
2023/08/11 05:28:38;;;;;;;6.05;2.58;;;;;;;;;;6180431;23;20044;-85
2023/08/11 05:31:07;;;;;;;5.80;2.00;;;;;;;;;;6181743;23;20012;-84
2023/08/11 05:33:33;;;;;;;8.98;2.30;;;;;;;;;;6181074;23;20368;-84
2023/08/11 05:35:59;;;;;;;4.15;1.65;;;;;;;;;;6180166;23;20009;-84
2023/08/11 05:38:25;;;;;;;6.53;1.88;;;;;;;;;;6180859;23;20050;-85
2023/08/11 05:40:52;;;;;;;7.15;1.95;;;;;;;;;;6179488;23;20013;-85
2023/08/11 05:43:18;;;;;;;4.22;2.03;;;;;;;;;;6182991;23;20005;-84
2023/08/11 05:45:44;;;;;;;5.38;1.80;;;;;;;;;;6179609;23;20047;-85
2023/08/11 05:48:10;;;;;;;4.40;1.83;;;;;;;;;;6181950;23;20005;-85
2023/08/11 05:50:38;;;;;;;7.70;1.88;;;;;;;;;;6178676;23;20009;-84
2023/08/11 05:53:05;;;;;;;6.93;2.17;;;;;;;;;;6180381;23;20013;-85
2023/08/11 05:55:31;;;;;;;4.53;1.95;;;;;;;;;;6180974;23;20005;-85
2023/08/11 05:57:57;;;;;;;6.65;2.10;;;;;;;;;;6180251;23;20009;-84
2023/08/11 06:00:25;;;;;;;6.13;2.05;;;;;;;;;;6182190;23;20032;-85
2023/08/11 06:02:52;;;;;;;6.63;2.00;;;;;;;;;;6155017;23;20475;-85
2023/08/11 06:05:21;;;;;;;6.97;2.38;;;;;;;;;;6181804;23;20089;-85
2023/08/11 06:07:49;;;;;;;9.43;2.10;;;;;;;;;;6155293;23;20028;-85
2023/08/11 06:10:15;;;;;;;4.63;2.05;;;;;;;;;;6155293;23;20020;-85
2023/08/11 06:12:41;;;;;;;4.57;2.00;;;;;;;;;;6153253;23;20904;-85
2023/08/11 06:15:08;;;;;;;7.22;2.22;;;;;;;;;;6155221;23;20325;-85
2023/08/11 06:17:35;;;;;;;8.50;1.95;;;;;;;;;;6154885;23;20211;-85
2023/08/11 06:20:02;;;;;;;3.85;1.70;;;;;;;;;;6181926;23;20012;-85
2023/08/11 06:22:28;;;;;;;5.50;1.73;;;;;;;;;;6155084;23;20005;-86
2023/08/11 06:24:54;;;;;;;4.05;1.58;;;;;;;;;;6155411;23;20028;-86
2023/08/11 06:27:20;;;;;;;5.07;1.90;;;;;;;;;;6154863;23;20012;-85
2023/08/11 06:29:46;;;;;;;5.72;2.05;;;;;;;;;;6155243;23;20021;-86
2023/08/11 06:32:12;;;;;;;7.75;2.15;;;;;;;;;;6154851;23;20318;-85
2023/08/11 06:34:38;;;;;;;5.43;2.00;;;;;;;;;;6155862;23;20013;-88
2023/08/11 06:37:04;;;;;;;7.63;2.30;;;;;;;;;;6181842;23;20005;-87
2023/08/11 06:39:30;;;;;;;7.43;2.08;;;;;;;;;;6155252;23;20460;-89
2023/08/11 06:41:56;;;;;;;4.68;1.63;;;;;;;;;;6155422;23;20448;-86
2023/08/11 06:44:22;;;;;;;5.63;1.80;;;;;;;;;;6181720;23;20425;-85
2023/08/11 06:46:50;;;;;;;6.25;1.95;;;;;;;;;;6155327;23;20099;-86
2023/08/11 06:49:16;;;;;;;5.93;2.05;;;;;;;;;;6155123;23;20021;-88
2023/08/11 06:51:42;;;;;;;3.58;1.83;;;;;;;;;;6155567;23;20024;-85
2023/08/11 06:54:08;;;;;;;5.90;1.85;;;;;;;;;;6154614;23;20332;-86
2023/08/11 06:56:34;;;;;;;8.00;2.28;;;;;;;;;;6155573;23;20009;-86
2023/08/11 06:59:08;;;;;;;7.47;1.95;;;;;;;;;;6163034;23;20025;-87
2023/08/11 07:04:24;;;;;;;7.75;1.58;;;;;;;;;;6158127;23;20095;-87
2023/08/11 07:09:45;;;;;;;6.63;1.83;;;;;;;;;;6164055;23;20096;-92
2023/08/11 07:18:14;;;;;;;7.93;1.77;;;;;;;;;;6171936;23;20426;-86
2023/08/11 07:20:44;;;;;;;4.28;1.63;;;;;;;;;;6128970;23;20033;-87
2023/08/11 07:28:27;;;;;;;5.47;1.70;;;;;;;;;;6159113;23;20056;-93
2023/08/11 07:31:04;;;;;;;4.20;1.73;;;;;;;;;;6124738;23;20029;-90
2023/08/11 07:33:56;;;;;;;5.22;1.85;;;;;;;;;;6125891;23;20602;-91
2023/08/11 07:46:02;;;;;;;6.95;2.30;;;;;;;;;;6117336;23;20115;-89
2023/08/11 07:51:32;;;;;;;4.85;2.17;;;;;;;;;;6166400;23;21004;-90
2023/08/11 08:00:45;;;;;;;6.05;1.70;;;;;;;;;;6059887;23;20423;-91
2023/08/11 08:40:06;;;;;;;5.90;2.53;;;;;;;;;;6155756;23;20369;-87
2023/08/11 08:46:38;;;;;;;4.65;1.63;;;;;;;;;;6172859;23;20098;-86
2023/08/11 08:49:33;;;;;;;4.72;1.75;;;;;;;;;;6156438;23;20124;-87
2023/08/11 08:52:00;;;;;;;4.93;1.98;;;;;;;;;;6119846;23;20157;-85
2023/08/11 09:00:59;;;;;;;7.88;1.85;;;;;;;;;;5984355;23;20628;-88
2023/08/11 09:03:55;;;;;;;3.45;1.70;;;;;;;;;;6156977;23;20116;-84
2023/08/11 12:00:44;;;;;;;3.42;1.35;;;;;;;;;;5979810;23;20007;-87
2023/08/11 12:03:39;;;;;;;5.00;1.65;;;;;;;;;;6127295;23;20014;-87
2023/08/11 12:06:17;;;;;;;4.45;1.60;;;;;;;;;;6119378;23;20228;-84
2023/08/11 12:11:48;;;;;;;5.55;1.58;;;;;;;;;;6155377;23;20028;-84
2023/08/11 12:14:19;;;;;;;5.75;1.48;;;;;;;;;;6128896;23;20033;-84
2023/08/11 12:16:45;;;;;;;;;;;;;;;;;;6112494;23;20018;-86
2023/08/11 12:19:16;;;;;;;6.72;1.88;;;;;;;;;;6127302;23;20256;-84
2023/08/11 12:22:03;;;;;;;4.20;1.40;;;;;;;;;;6127617;23;20496;-85
2023/08/11 12:24:29;;;;;;;3.25;1.30;;;;;;;;;;6127121;23;20027;-84
2023/08/11 12:26:55;;;;;;;2.42;1.23;;;;;;;;;;6127864;23;20016;-84
2023/08/11 12:29:47;;;;;;;2.35;1.13;;;;;;;;;;6126219;23;20381;-84
2023/08/11 12:32:21;;;;;;;4.22;1.30;;;;;;;;;;6153209;23;20012;-85
2023/08/11 12:35:15;;;;;;;;;;;;;;;;;;;;;
2023/08/11 13:14:31;;;;;;;4.00;1.20;;;;;;;;;;6154841;23;20024;-87
2023/08/11 13:20:09;;;;;;;2.30;0.90;;;;;;;;;;6067947;23;20024;-85
2023/08/11 13:22:39;;;;;;;2.65;1.20;;;;;;;;;;6128994;23;20028;-85
2023/08/11 13:25:08;;;;;;;2.80;1.08;;;;;;;;;;6154966;23;20009;-85
2023/08/11 13:27:41;;;;;;;5.20;1.02;;;;;;;;;;6127213;23;20025;-86
2023/08/11 13:54:09;;;;;;;4.50;1.10;;;;;;;;;;6127576;23;20414;-84
2023/08/11 14:11:50;;;;;;;;;;;;;;;;;;;;;
2023/08/11 14:20:58;;;;;;;3.33;1.65;;;;;;;;;;6212127;23;20775;-87
2023/08/11 14:48:26;;;;;;;2.50;1.10;;;;;;;;;;6184767;23;20027;-86
2023/08/11 16:12:03;;;;;;;2.05;0.82;;;;;;;;;;6187639;23;20056;-86
2023/08/11 16:14:48;;;;;;;;;;;;;;;;;;;;;
2023/08/11 17:26:58;;;;;;;8.45;1.10;;;;;;;;;;6175624;23;20055;-87
2023/08/11 18:06:59;;;;;;;4.38;1.60;;;;;;;;;;6178198;22;20075;-84
2023/08/11 18:13:30;;;;;;;3.47;1.35;;;;;;;;;;6031942;23;20023;-84
2023/08/11 18:16:17;;;;;;;;;;;;;;;;;;;;;
2023/08/11 18:51:59;;;;;;;4.85;1.52;;;;;;;;;;6158806;23;20127;-88
2023/08/11 19:12:39;;;;;;;;;;;;;;;;;;;;;
2023/08/11 19:17:59;;;;;;;4.53;1.42;;;;;;;;;;6165540;23;20048;-88
2023/08/11 19:20:59;;;;;;;4.72;1.90;;;;;;;;;;6149266;23;20021;-86
2023/08/11 19:23:33;;;;;;;5.10;1.75;;;;;;;;;;6129319;23;20028;-86
2023/08/11 19:25:59;;;;;;;3.33;1.55;;;;;;;;;;6152570;23;20028;-84
2023/08/11 19:28:31;;;;;;;6.22;1.77;;;;;;;;;;6154730;23;20124;-85
2023/08/11 19:31:00;;;;;;;5.85;1.80;;;;;;;;;;6154531;23;20017;-85
2023/08/11 19:57:35;;;;;;;6.38;1.65;;;;;;;;;;6179423;23;20495;-85
2023/08/11 20:03:09;;;;;;;4.38;1.55;;;;;;;;;;6150222;23;20127;-85
2023/08/11 20:06:14;;;;;;;4.57;1.55;;;;;;;;;;6127938;22;20158;-86
2023/08/11 20:08:47;;;;;;;4.95;1.70;;;;;;;;;;6080382;23;20021;-85
2023/08/11 20:11:26;;;;;;;3.13;1.40;;;;;;;;;;6165260;23;20032;-88
2023/08/11 20:14:06;;;;;;;4.00;1.25;;;;;;;;;;6213158;23;20044;-88
2023/08/11 20:22:25;;;;;;;3.88;1.63;;;;;;;;;;6037297;23;20071;-88
2023/08/11 20:25:16;;;;;;;;;;;;;;;;;;;;;
2023/08/11 20:27:57;;;;;;;6.38;2.60;;;;;;;;;;6182678;23;19991;-85
2023/08/11 20:30:23;;;;;;;6.77;2.00;;;;;;;;;;6156566;23;20375;-85
2023/08/11 20:32:52;;;;;;;6.35;1.90;;;;;;;;;;6155752;23;20008;-84
2023/08/11 20:35:21;;;;;;;5.60;2.08;;;;;;;;;;6181557;23;20013;-85
2023/08/11 20:37:47;;;;;;;8.10;1.50;;;;;;;;;;6154772;23;20336;-85
2023/08/11 20:40:13;;;;;;;5.40;1.85;;;;;;;;;;6154543;23;20017;-85
2023/08/11 20:42:39;;;;;;;6.47;1.63;;;;;;;;;;6155172;23;20016;-85
2023/08/11 20:45:05;;;;;;;8.70;1.85;;;;;;;;;;6154749;23;20037;-85
2023/08/11 20:47:31;;;;;;;6.45;1.70;;;;;;;;;;6155629;23;20017;-85
2023/08/11 20:49:57;;;;;;;3.45;1.52;;;;;;;;;;6155550;23;20479;-86
2023/08/11 20:52:23;;;;;;;10.23;1.85;;;;;;;;;;6181808;23;20667;-85
2023/08/11 20:54:52;;;;;;;6.68;1.48;;;;;;;;;;6155333;23;20129;-85
2023/08/11 20:57:18;;;;;;;3.05;1.40;;;;;;;;;;6154822;23;20024;-85
2023/08/11 20:59:44;;;;;;;4.20;1.40;;;;;;;;;;6154993;23;20001;-85
2023/08/11 21:02:10;;;;;;;3.78;1.50;;;;;;;;;;6155705;23;20016;-85
2023/08/11 21:04:36;;;;;;;3.40;1.20;;;;;;;;;;6181902;23;20005;-85
2023/08/11 21:07:02;;;;;;;5.07;1.52;;;;;;;;;;6155710;23;20047;-85
2023/08/11 21:09:28;;;;;;;3.83;1.52;;;;;;;;;;6182009;23;20444;-85
2023/08/11 21:12:00;;;;;;;4.32;1.52;;;;;;;;;;6182325;23;20585;-85
2023/08/11 21:14:26;;;;;;;;;;;;;;;;;;6156011;23;20068;-84
2023/08/11 21:16:52;;;;;;;5.05;1.55;;;;;;;;;;6155176;23;20320;-85
2023/08/11 21:19:18;;;;;;;4.85;1.60;;;;;;;;;;6181471;23;20032;-84
2023/08/11 21:21:44;;;;;;;5.25;1.88;;;;;;;;;;6183132;23;20298;-85
2023/08/11 21:24:11;;;;;;;4.85;1.58;;;;;;;;;;6154931;23;20016;-84
2023/08/11 21:26:40;;;;;;;4.53;1.63;;;;;;;;;;6182071;23;20013;-85
2023/08/11 21:29:06;;;;;;;2.88;1.48;;;;;;;;;;6155705;23;20020;-84
2023/08/11 21:31:32;;;;;;;4.75;1.80;;;;;;;;;;6154933;23;20016;-85
2023/08/11 21:33:59;;;;;;;5.28;1.60;;;;;;;;;;6155797;23;20024;-85
2023/08/11 21:36:25;;;;;;;5.28;2.53;;;;;;;;;;6154600;23;20024;-85
2023/08/11 21:38:51;;;;;;;4.50;1.50;;;;;;;;;;6181827;23;20012;-84
2023/08/11 21:41:17;;;;;;;6.95;1.48;;;;;;;;;;6182096;23;20016;-85
2023/08/11 21:43:43;;;;;;;6.10;1.88;;;;;;;;;;6155327;23;20009;-84
2023/08/11 21:46:09;;;;;;;3.75;1.30;;;;;;;;;;6155214;23;20052;-85
2023/08/11 21:48:35;;;;;;;5.05;1.50;;;;;;;;;;6181033;23;20349;-84
2023/08/11 21:51:01;;;;;;;4.85;1.38;;;;;;;;;;6154881;23;20029;-85
2023/08/11 21:53:27;;;;;;;3.33;1.20;;;;;;;;;;6155534;23;20096;-84
2023/08/11 21:55:53;;;;;;;3.63;1.42;;;;;;;;;;6180766;23;20016;-84
2023/08/11 21:58:20;;;;;;;3.85;1.52;;;;;;;;;;6154949;23;20013;-84
2023/08/11 22:00:48;;;;;;;2.88;1.27;;;;;;;;;;6155060;23;20005;-84
2023/08/11 22:03:14;;;;;;;6.28;1.83;;;;;;;;;;6155579;23;20013;-84
2023/08/11 22:05:40;;;;;;;5.55;1.77;;;;;;;;;;6154834;23;20405;-84
2023/08/11 22:08:06;;;;;;;4.53;1.60;;;;;;;;;;6181745;23;20425;-84
2023/08/11 22:10:32;;;;;;;4.32;1.63;;;;;;;;;;6181269;23;20008;-84
2023/08/11 22:12:58;;;;;;;3.92;1.35;;;;;;;;;;6155264;23;20088;-84
2023/08/11 22:15:24;;;;;;;4.07;1.40;;;;;;;;;;6153738;23;20005;-84
2023/08/11 22:17:50;;;;;;;4.07;1.58;;;;;;;;;;6154910;23;20453;-84
2023/08/11 22:20:16;;;;;;;4.65;1.92;;;;;;;;;;6178874;23;20100;-84
2023/08/11 22:22:42;;;;;;;3.83;1.73;;;;;;;;;;6151953;23;20052;-84
2023/08/11 22:25:08;;;;;;;5.00;1.80;;;;;;;;;;6151386;23;20009;-84
2023/08/11 22:27:35;;;;;;;13.60;2.08;;;;;;;;;;6126185;23;20022;-83
2023/08/11 22:30:01;;;;;;;5.63;1.92;;;;;;;;;;6124707;23;20076;-84
2023/08/11 22:32:27;;;;;;;4.15;1.50;;;;;;;;;;6151710;23;20014;-83
2023/08/11 22:34:54;;;;;;;2.92;1.45;;;;;;;;;;6150800;23;20015;-83
2023/08/11 22:37:20;;;;;;;5.90;1.40;;;;;;;;;;6125181;23;20765;-83
2023/08/11 22:39:49;;;;;;;2.85;1.20;;;;;;;;;;6124814;23;20555;-83
2023/08/11 22:42:17;;;;;;;3.15;1.30;;;;;;;;;;6152082;23;20021;-83
2023/08/11 22:44:44;;;;;;;6.35;1.95;;;;;;;;;;6151373;23;20053;-84
2023/08/11 22:47:10;;;;;;;7.05;1.85;;;;;;;;;;6124604;23;20021;-83
2023/08/11 22:49:43;;;;;;;4.78;1.83;;;;;;;;;;6151300;23;20015;-83
2023/08/11 22:52:09;;;;;;;4.68;1.73;;;;;;;;;;6151464;23;20037;-83
2023/08/11 22:54:35;;;;;;;4.97;1.60;;;;;;;;;;6151783;23;20160;-83
2023/08/11 22:57:07;;;;;;;7.30;1.80;;;;;;;;;;6124799;23;20009;-83
2023/08/11 22:59:33;;;;;;;5.13;1.98;;;;;;;;;;6151562;23;20088;-83
2023/08/11 23:01:59;;;;;;;5.40;1.60;;;;;;;;;;6125831;23;20085;-84
2023/08/11 23:04:25;;;;;;;6.50;1.92;;;;;;;;;;6124437;23;20080;-83
2023/08/11 23:06:51;;;;;;;5.38;1.80;;;;;;;;;;6151540;23;20009;-84
2023/08/11 23:09:17;;;;;;;5.65;1.80;;;;;;;;;;6124885;23;20017;-83
2023/08/11 23:11:45;;;;;;;5.85;1.52;;;;;;;;;;6151574;23;20081;-84
2023/08/11 23:14:11;;;;;;;5.70;1.50;;;;;;;;;;6124868;23;20040;-84
2023/08/11 23:16:37;;;;;;;4.38;1.65;;;;;;;;;;6151559;23;20005;-83
2023/08/11 23:19:05;;;;;;;5.30;1.80;;;;;;;;;;6151211;23;20025;-84
2023/08/11 23:21:31;;;;;;;6.40;1.90;;;;;;;;;;6151213;23;20005;-84
2023/08/11 23:23:57;;;;;;;7.55;1.85;;;;;;;;;;6124239;23;20680;-84
2023/08/11 23:26:23;;;;;;;5.45;1.67;;;;;;;;;;6124895;23;20084;-84
2023/08/11 23:28:49;;;;;;;3.13;1.52;;;;;;;;;;6124990;23;20033;-84
2023/08/11 23:31:16;;;;;;;5.35;1.90;;;;;;;;;;6125306;23;20473;-84
2023/08/11 23:33:42;;;;;;;6.32;2.13;;;;;;;;;;6124641;23;20009;-84
2023/08/11 23:36:08;;;;;;;6.10;1.90;;;;;;;;;;6151592;23;20028;-84
2023/08/11 23:38:38;;;;;;;7.47;1.48;;;;;;;;;;6150858;23;20041;-84
2023/08/11 23:41:04;;;;;;;3.45;1.60;;;;;;;;;;6151457;23;20002;-84
2023/08/11 23:43:32;;;;;;;4.75;1.60;;;;;;;;;;6152393;23;20074;-84
2023/08/11 23:45:59;;;;;;;3.08;1.52;;;;;;;;;;6153567;23;20088;-84
2023/08/11 23:48:25;;;;;;;4.70;1.80;;;;;;;;;;6152740;23;20009;-84
2023/08/11 23:50:51;;;;;;;4.50;1.70;;;;;;;;;;6127507;23;20009;-84
2023/08/11 23:53:17;;;;;;;6.32;1.67;;;;;;;;;;6127151;23;20322;-83
2023/08/11 23:55:43;;;;;;;3.65;1.40;;;;;;;;;;6127041;23;20017;-84
2023/08/11 23:58:09;;;;;;;5.85;1.67;;;;;;;;;;6126521;23;20041;-84
